Flight Track Log - Related Links

Times and Time Zones

All times are in EST time to prevent confusion due to time zone crossing. See the RJA103 flight status page for this flight to view local times or setup timezone preferences in your user account.

Time Position Orientation Groundspeed Altitude Reporting Facility
EST Latitude Longitude Course Direction KTS MPH feet Rate Location/Type
Sun 02:56:59 AM 31.7200 36.0220 82° East 163 188 3,000  Level FlightAware ADS-B
Sun 02:57:39 AM 31.7250 36.0560 80° East 161 185 4,600 2,333 Climbing FlightAware ADS-B
Sun 02:58:11 AM 31.7300 36.0830 78° East 159 183 5,800 1,765 Climbing FlightAware ADS-B
Sun 02:58:47 AM 31.7510 36.1050 42° Northeast 210 242 6,600 1,315 Climbing FlightAware ADS-B
Sun 02:59:24 AM 31.7810 36.0760 321° Northwest 271 312 7,400 1,565 Climbing FlightAware ADS-B
Sun 02:59:56 AM 31.7860 36.0260 277° West 311 358 8,400 1,579 Climbing FlightAware ADS-B
Sun 03:00:21 AM 31.7890 35.9830 275° West 342 394 8,900 2,000 Climbing FlightAware ADS-B
Sun 03:00:50 AM 31.7930 35.9300 275° West 350 403 10,200 1,912 Climbing FlightAware ADS-B
Sun 03:01:52 AM 31.8030 35.8060 275° West 365 420 11,800 1,052 Climbing FlightAware ADS-B
Sun 03:02:27 AM 31.8080 35.7390 275° West 363 418 11,900 94 Climbing FlightAware ADS-B
Sun 03:02:56 AM 31.8120 35.6900 275° West 362 417 11,900  Level FlightAware ADS-B
Sun 03:03:51 AM 31.8210 35.5750 275° West 361 415 11,900  Level FlightAware ADS-B
Sun 03:04:27 AM 31.8270 35.5070 276° West 362 417 11,900  Level FlightAware ADS-B
Sun 03:05:12 AM 31.8420 35.4320 283° West 362 417 11,900  Level FlightAware ADS-B
Sun 03:05:36 AM 31.8500 35.3920 283° West 362 417 11,900  Level FlightAware ADS-B
Sun 03:05:53 AM 31.8740 35.3460 302° West 364 419 11,900  Level FlightAware ADS-B
Sun 03:06:23 AM 31.8910 35.2890 289° West 361 415 11,900  Level FlightAware ADS-B
Sun 03:07:14 AM 31.9150 35.2080 289° West 361 415 11,900  Level FlightAware ADS-B
Sun 03:07:43 AM 31.9350 35.1400 289° West 365 420 11,900  Level FlightAware ADS-B
Sun 03:08:20 AM 31.9530 35.0800 289° West 365 420 11,900  Level FlightAware ADS-B
Sun 03:08:43 AM 31.9350 35.1400 109° East 366 421 11,900  Level FlightAware ADS-B
Sun 03:10:13 AM 32.0140 34.8710 289° West 364 419 11,900  Level FlightAware ADS-B
Sun 03:10:29 AM 32.0160 34.8320 273° West 368 423 11,900  Level FlightAware ADS-B
Sun 03:11:22 AM 32.0200 34.7410 273° West 368 423 11,900  Level FlightAware ADS-B
Sun 03:12:07 AM 32.0270 34.6400 275° West 367 422 11,900 308 Level FlightAware ADS-B
Sun 03:12:40 AM 32.0310 34.5700 274° West 369 425 12,300 1,676 Climbing FlightAware ADS-B
Sun 03:13:15 AM 32.0350 34.4940 274° West 383 441 13,800 2,560 Climbing FlightAware ADS-B
Sun 03:13:55 AM 32.0570 34.4190 289° West 382 440 15,500 2,475 Climbing FlightAware ADS-B
Sun 03:14:35 AM 32.0890 34.3460 297° West 391 450 17,100 2,250 Climbing FlightAware ADS-B
Sun 03:15:15 AM 32.1230 34.2660 297° West 403 464 18,500 1,976 Climbing FlightAware ADS-B
Sun 03:16:00 AM 32.1610 34.1770 297° West 414 476 19,900 1,926 Climbing FlightAware ADS-B
Sun 03:16:36 AM 32.1910 34.1050 296° West 419 482 21,100 2,031 Climbing FlightAware ADS-B
Sun 03:17:05 AM 32.2170 34.0440 297° West 422 486 22,100 2,063 Climbing FlightAware ADS-B
Sun 03:17:40 AM 32.2480 33.9710 297° West 423 487 23,300 2,080 Climbing FlightAware ADS-B
Sun 03:18:20 AM 32.2830 33.8880 297° West 422 486 24,700 1,826 Climbing FlightAware ADS-B
Sun 03:19:35 AM 32.3460 33.7400 297° West 422 486 26,800 1,514 Climbing FlightAware ADS-B
Sun 03:20:11 AM 32.3800 33.6610 297° West 432 497 27,500 1,292 Climbing FlightAware ADS-B
Sun 03:20:40 AM 32.4050 33.5990 296° West 436 502 28,200 1,565 Climbing FlightAware ADS-B
Sun 03:21:20 AM 32.4430 33.5110 297° West 433 498 29,300 1,479 Climbing FlightAware ADS-B
Sun 03:21:53 AM 32.4710 33.4410 295° West 415 478 30,000 575 Climbing FlightAware ADS-B
Sun 03:22:33 AM 32.5050 33.3600 296° West 416 479 30,000  Level FlightAware ADS-B
Sun 03:23:06 AM 32.5340 33.2920 297° West 419 482 30,000  Level FlightAware ADS-B
Sun 03:23:37 AM 32.5600 33.2290 296° West 419 482 30,000  Level FlightAware ADS-B
Sun 03:24:13 AM 32.5910 33.1540 296° West 421 484 30,000  Level FlightAware ADS-B
Sun 03:24:50 AM 32.6230 33.0770 296° West 423 487 30,000  Level FlightAware ADS-B
Sun 03:25:32 AM 32.6570 32.9940 296° West 421 484 30,000  Level FlightAware ADS-B
Sun 03:26:22 AM 32.6980 32.8950 296° West 422 486 30,000  Level FlightAware ADS-B
Sun 03:27:12 AM 32.7330 32.8050 295° West 422 486 30,000  Level FlightAware ADS-B
Sun 03:27:48 AM 32.7580 32.7410 295° West 422 486 30,000  Level FlightAware ADS-B
Sun 03:28:23 AM 32.8040 32.6360 298° West 425 489 30,000  Level FlightAware ADS-B
Sun 03:29:07 AM 32.8440 32.5400 296° West 430 495 30,000  Level FlightAware ADS-B
Sun 03:29:43 AM 32.8790 32.4640 299° West 433 498 30,000  Level FlightAware ADS-B
Sun 03:30:08 AM 32.9090 32.4130 305° West 436 502 30,000  Level FlightAware ADS-B
Sun 03:30:54 AM 32.9630 32.3250 306° West 438 504 30,000  Level FlightAware ADS-B
Sun 03:32:05 AM 33.0430 32.1910 305° West 441 507 30,000  Level FlightAware ADS-B
Sun 03:32:40 AM 33.0870 32.1190 306° West 442 509 30,000  Level FlightAware ADS-B
Sun 03:33:20 AM 33.1340 32.0400 305° West 444 511 30,000  Level FlightAware ADS-B
Sun 03:33:50 AM 33.1670 31.9850 306° West 444 511 30,000  Level FlightAware ADS-B
Sun 03:34:30 AM 33.2160 31.9040 306° West 444 511 30,000  Level FlightAware ADS-B
Sun 03:35:00 AM 33.2550 31.8380 305° West 445 512 30,000  Level FlightAware ADS-B
Sun 03:35:44 AM 33.3060 31.7530 306° West 447 514 30,000  Level FlightAware ADS-B
Sun 03:36:20 AM 33.3460 31.6850 305° West 449 517 30,000  Level FlightAware ADS-B
Sun 03:36:50 AM 33.3880 31.6140 305° West 451 519 30,000  Level FlightAware ADS-B
Sun 03:37:29 AM 33.4350 31.5340 305° West 452 520 30,000  Level FlightAware ADS-B
Sun 03:38:06 AM 33.4790 31.4610 306° West 452 520 30,000  Level FlightAware ADS-B
Sun 03:38:25 AM 33.5030 31.4210 306° West 452 520 30,000  Level FlightAware ADS-B
Sun 03:39:11 AM 33.5560 31.3290 305° West 455 524 30,000  Level FlightAware ADS-B
Sun 03:39:41 AM 33.5910 31.2700 305° West 455 524 30,000  Level FlightAware ADS-B
Sun 03:40:20 AM 33.6380 31.1910 306° West 456 525 30,000  Level FlightAware ADS-B
Sun 03:40:56 AM 33.6860 31.1080 305° West 457 526 30,000  Level FlightAware ADS-B
Sun 03:41:20 AM 33.7150 31.0580 305° West 457 526 30,000  Level FlightAware ADS-B
Sun 03:42:10 AM 33.7780 30.9500 305° West 458 527 30,000  Level FlightAware ADS-B
Sun 03:42:40 AM 33.8130 30.8890 305° West 458 527 30,000  Level FlightAware ADS-B
Sun 03:43:10 AM 33.8510 30.8240 305° West 458 527 30,000  Level FlightAware ADS-B
Sun 03:43:57 AM 33.9080 30.7270 305° West 458 527 30,000  Level FlightAware ADS-B
Sun 03:44:48 AM 33.9690 30.6210 305° West 30,000  Level FlightAware ADS-B
Sun 03:45:24 AM 34.0120 30.5460 305° West 460 529 30,000  Level FlightAware ADS-B
Sun 03:46:04 AM 34.0620 30.4600 305° West 461 531 30,000  Level FlightAware ADS-B
Sun 03:46:45 AM 34.1050 30.3830 304° West 462 532 30,000  Level FlightAware ADS-B
Sun 03:47:10 AM 34.1400 30.3230 305° West 458 527 30,000  Level FlightAware ADS-B
Sun 03:47:40 AM 34.1760 30.2610 305° West 463 533 30,000  Level FlightAware ADS-B
Sun 03:48:25 AM 34.2280 30.1690 304° West 463 533 30,000  Level FlightAware ADS-B
Sun 03:48:56 AM 34.2700 30.0950 304° West 463 533 30,000  Level FlightAware ADS-B
Sun 03:49:16 AM 34.2920 30.0550 304° West 463 533 30,000  Level FlightAware ADS-B
Sun 03:50:08 AM 34.3450 29.9600 304° West 463 533 30,000  Level FlightAware ADS-B
Sun 03:50:18 AM 34.3640 29.9260 304° West 449 517 30,000  Level FlightAware ADS-B
Sun 03:53:00 AM 34.5510 29.6671 311° West  Level Estimated
Sun 03:54:00 AM 34.6202 29.5709 311° West  Level Estimated
Sun 03:54:12 AM 34.6480 29.4180 311° West 460 529 30,000  Level FlightAware ADS-B
Sun 03:54:52 AM 34.6950 29.3340 304° West 459 528 30,000  Level FlightAware ADS-B
Sun 03:55:22 AM 34.7290 29.2740 305° West 459 528 30,000  Level FlightAware ADS-B
Sun 03:56:00 AM 34.7660 29.2030 302° West 459 528 30,000  Level FlightAware ADS-B
Sun 03:56:42 AM 34.8270 29.0950 305° West 460 529 30,000  Level FlightAware ADS-B
Sun 03:57:49 AM 34.8990 28.9640 304° West 460 529 30,000  Level FlightAware ADS-B
Sun 03:58:28 AM 34.9530 28.8660 304° West 463 533 30,000  Level FlightAware ADS-B
Sun 03:59:50 AM 35.0510 28.6870 304° West 464 534 30,000  Level FlightAware ADS-B
Sun 04:00:48 AM 35.1200 28.5600 304° West 464 534 30,000  Level FlightAware ADS-B
Sun 04:01:20 AM 35.1520 28.5010 304° West 464 534 30,000  Level FlightAware ADS-B
Sun 04:02:14 AM 35.2220 28.3710 303° West 466 536 30,000  Level FlightAware ADS-B
Sun 04:02:30 AM 35.2410 28.3360 304° West 468 539 30,000  Level FlightAware ADS-B
Sun 04:03:50 AM 35.3350 28.1600 303° West 470 541 30,000  Level FlightAware ADS-B
Sun 04:04:18 AM 35.3690 28.0970 304° West 470 541 30,000 686 Level FlightAware ADS-B
Sun 04:05:00 AM 35.4180 28.0050 303° West 466 536 30,800 1,412 Climbing FlightAware ADS-B
Sun 04:06:00 AM 35.4870 27.8760 303° West 456 525 32,400 1,531 Climbing FlightAware ADS-B
Sun 04:06:38 AM 35.5320 27.7910 303° West 454 522 33,300 1,371 Climbing FlightAware ADS-B
Sun 04:07:10 AM 35.5680 27.7220 303° West 453 521 34,000 1,452 Climbing FlightAware ADS-B
Sun 04:07:40 AM 35.6030 27.6570 304° West 447 514 34,800 1,235 Climbing FlightAware ADS-B
Sun 04:08:18 AM 35.6460 27.5760 303° West 449 517 35,400 655 Climbing FlightAware ADS-B
Sun 04:09:30 AM 35.7250 27.4250 303° West 437 503 36,000 367 Climbing FlightAware ADS-B
Sun 04:09:56 AM 35.7550 27.3690 303° West 440 506 36,000  Level FlightAware ADS-B
Sun 04:10:44 AM 35.8070 27.2690 303° West 443 510 36,000  Level FlightAware ADS-B
Sun 04:11:08 AM 35.8340 27.2180 303° West 443 510 36,000  Level FlightAware ADS-B
Sun 04:11:47 AM 35.8760 27.1370 303° West 444 511 36,000  Level FlightAware ADS-B
Sun 04:12:53 AM 35.9500 26.9940 303° West 447 514 36,000  Level FlightAware ADS-B
Sun 04:13:44 AM 36.0030 26.8910 302° West 448 516 36,000  Level FlightAware ADS-B
Sun 04:14:31 AM 36.0590 26.7830 303° West 452 520 36,000  Level FlightAware ADS-B
Sun 04:15:16 AM 36.1100 26.6850 303° West 454 522 36,000  Level FlightAware ADS-B
Sun 04:16:23 AM 36.1850 26.5380 302° West 455 524 36,000  Level FlightAware ADS-B
Sun 04:17:03 AM 36.2310 26.4480 302° West 456 525 36,000  Level FlightAware ADS-B
Sun 04:17:39 AM 36.2710 26.3680 302° West 457 526 36,000  Level FlightAware ADS-B
Sun 04:18:23 AM 36.3210 26.2710 303° West 458 527 36,000  Level FlightAware ADS-B
Sun 04:19:03 AM 36.3660 26.1810 302° West 456 525 36,000  Level FlightAware ADS-B
Sun 04:19:37 AM 36.4040 26.1070 303° West 455 524 36,000  Level FlightAware ADS-B
Sun 04:20:09 AM 36.4370 26.0400 301° West 455 524 36,000 -95 Level FlightAware ADS-B
Sun 04:20:40 AM 36.4740 25.9680 303° West 455 524 35,900  Descending FlightAware ADS-B
Sun 04:21:54 AM 36.5570 25.8020 302° West 457 526 36,000 55 Climbing FlightAware ADS-B
Sun 04:22:30 AM 36.5960 25.7240 302° West 456 525 36,000  Level FlightAware ADS-B
Sun 04:23:07 AM 36.6380 25.6400 302° West 457 526 36,000  Level FlightAware ADS-B
Sun 04:23:55 AM 36.6910 25.5330 302° West 457 526 36,000  Level FlightAware ADS-B
Sun 04:24:37 AM 36.7370 25.4410 302° West 457 526 36,000  Level FlightAware ADS-B
Sun 04:25:19 AM 36.7850 25.3440 302° West 458 527 36,000  Level FlightAware ADS-B
Sun 04:25:53 AM 36.8210 25.2710 302° West 457 526 36,000  Level FlightAware ADS-B
Sun 04:26:59 AM 36.8920 25.1250 301° West 458 527 36,000  Level FlightAware ADS-B
Sun 04:27:39 AM 36.9370 25.0330 301° West 459 528 36,000  Level FlightAware ADS-B
Sun 04:28:13 AM 36.9740 24.9570 301° West 458 527 36,000  Level FlightAware ADS-B
Sun 04:28:51 AM 37.0170 24.8690 301° West 457 526 36,000  Level FlightAware ADS-B
Sun 04:29:27 AM 37.0580 24.7850 301° West 456 525 36,000  Level FlightAware ADS-B
Sun 04:30:03 AM 37.0950 24.7090 301° West 456 525 36,000  Level FlightAware ADS-B
Sun 04:30:43 AM 37.1410 24.6130 301° West 456 525 36,000  Level FlightAware ADS-B
Sun 04:31:23 AM 37.1820 24.5270 301° West 456 525 36,000  Level FlightAware ADS-B
Sun 04:32:07 AM 37.2320 24.4240 301° West 457 526 36,000  Level FlightAware ADS-B
Sun 04:32:39 AM 37.2650 24.3550 301° West 458 527 36,000  Level FlightAware ADS-B
Sun 04:33:19 AM 37.3100 24.2610 301° West 460 529 36,000  Level FlightAware ADS-B
Sun 04:33:59 AM 37.3530 24.1720 301° West 462 532 36,000  Level FlightAware ADS-B
Sun 04:34:44 AM 37.4040 24.0660 301° West 466 536 36,000  Level FlightAware ADS-B
Sun 04:35:23 AM 37.4470 23.9750 301° West 469 540 36,000  Level FlightAware ADS-B
Sun 04:36:03 AM 37.4900 23.8820 300° West 471 542 36,000  Level FlightAware ADS-B
Sun 04:36:45 AM 37.5380 23.7810 301° West 471 542 36,000  Level FlightAware ADS-B
Sun 04:37:33 AM 37.5910 23.6680 301° West 473 544 36,000  Level FlightAware ADS-B
Sun 04:38:07 AM 37.6300 23.5870 301° West 472 543 36,000  Level FlightAware ADS-B
Sun 04:38:45 AM 37.6770 23.5040 306° West 471 542 36,000  Level FlightAware ADS-B
Sun 04:39:17 AM 37.7170 23.4310 305° West 472 543 36,000  Level FlightAware ADS-B
Sun 04:40:27 AM 37.8030 23.2730 305° West 476 548 36,000  Level FlightAware ADS-B
Sun 04:41:01 AM 37.8470 23.1910 304° West 477 549 36,000  Level FlightAware ADS-B
Sun 04:41:43 AM 37.8970 23.0980 304° West 477 549 36,000  Level FlightAware ADS-B
Sun 04:42:55 AM 37.9860 22.9310 304° West 476 548 36,000  Level FlightAware ADS-B
Sun 04:43:36 AM 38.0380 22.8330 304° West 476 548 36,000  Level FlightAware ADS-B
Sun 04:44:13 AM 38.0840 22.7470 304° West 475 547 36,000  Level FlightAware ADS-B
Sun 04:44:48 AM 38.1270 22.6660 304° West 474 545 36,000  Level FlightAware ADS-B
Sun 04:45:25 AM 38.1710 22.5820 304° West 472 543 36,000  Level FlightAware ADS-B
Sun 04:45:53 AM 38.2060 22.5160 304° West 470 541 36,000  Level FlightAware ADS-B
Sun 04:46:31 AM 38.2520 22.4280 304° West 468 539 36,000  Level FlightAware ADS-B
Sun 04:47:02 AM 38.2870 22.3600 303° West 468 539 36,000  Level FlightAware ADS-B
Sun 04:47:45 AM 38.3400 22.2600 304° West 468 539 36,000  Level FlightAware ADS-B
Sun 04:48:41 AM 38.4070 22.1310 304° West 468 539 36,000  Level FlightAware ADS-B
Sun 04:49:17 AM 38.4490 22.0500 304° West 469 540 36,000  Level FlightAware ADS-B
Sun 04:49:53 AM 38.4930 21.9650 303° West 469 540 36,000  Level FlightAware ADS-B
Sun 04:50:36 AM 38.5440 21.8660 303° West 469 540 36,000  Level FlightAware ADS-B
Sun 04:51:14 AM 38.5890 21.7800 304° West 468 539 36,000  Level FlightAware ADS-B
Sun 04:51:57 AM 38.6400 21.6800 303° West 468 539 36,000  Level FlightAware ADS-B
Sun 04:53:06 AM 38.7210 21.5220 303° West 465 535 36,000  Level FlightAware ADS-B
Sun 04:53:51 AM 38.7740 21.4180 303° West 463 533 36,000  Level FlightAware ADS-B
Sun 04:54:37 AM 38.8270 21.3150 303° West 462 532 36,000  Level FlightAware ADS-B
Sun 04:55:22 AM 38.8780 21.2130 303° West 462 532 36,000  Level FlightAware ADS-B
Sun 04:56:08 AM 38.9330 21.1040 303° West 463 533 36,000  Level FlightAware ADS-B
Sun 04:56:44 AM 38.9750 21.0210 303° West 462 532 36,000  Level FlightAware ADS-B
Sun 04:57:24 AM 39.0210 20.9280 303° West 462 532 36,000  Level FlightAware ADS-B
Sun 04:58:05 AM 39.0680 20.8360 303° West 461 531 36,000  Level FlightAware ADS-B
Sun 04:59:14 AM 39.1460 20.6780 303° West 459 528 36,000  Level FlightAware ADS-B
Sun 04:59:43 AM 39.1790 20.6110 302° West 457 526 36,000  Level FlightAware ADS-B
Sun 05:00:22 AM 39.2240 20.5200 303° West 455 524 36,000  Level FlightAware ADS-B
Sun 05:01:05 AM 39.2730 20.4210 303° West 454 522 36,000  Level FlightAware ADS-B
Sun 05:01:41 AM 39.3150 20.3360 303° West 453 521 36,000 -79 Level FlightAware ADS-B
Sun 05:02:21 AM 39.3570 20.2520 303° West 453 521 35,900  Descending FlightAware ADS-B
Sun 05:02:57 AM 39.3990 20.1660 302° West 455 524 36,000 56 Climbing FlightAware ADS-B
Sun 05:04:09 AM 39.4890 20.0130 307° West 446 513 36,000  Level FlightAware ADS-B
Sun 05:04:34 AM 39.5260 19.9640 314° West 446 513 36,000  Level FlightAware ADS-B
Sun 05:05:21 AM 39.5930 19.8760 315° West 446 513 36,000  Level FlightAware ADS-B
Sun 05:05:55 AM 39.6440 19.8080 314° West 445 512 36,000  Level FlightAware ADS-B
Sun 05:06:34 AM 39.7030 19.7300 315° West 445 512 36,000  Level FlightAware ADS-B
Sun 05:07:15 AM 39.7610 19.6530 314° West 444 511 36,000  Level FlightAware ADS-B
Sun 05:07:49 AM 39.8100 19.5870 314° West 444 511 36,000  Level FlightAware ADS-B
Sun 05:08:37 AM 39.8740 19.5020 314° West 435 501 36,000  Level FlightAware ADS-B
Sun 05:09:11 AM 39.9230 19.4350 314° West 435 501 36,000  Level FlightAware ADS-B
Sun 05:10:12 AM 40.0120 19.3160 314° West 432 497 36,000  Level FlightAware ADS-B
Sun 05:10:46 AM 40.0570 19.2530 313° West 433 498 36,000  Level FlightAware ADS-B
Sun 05:11:31 AM 40.1180 19.1610 311° West 437 503 36,000  Level FlightAware ADS-B
Sun 05:12:10 AM 40.1660 19.0870 310° West 439 505 36,000  Level FlightAware ADS-B
Sun 05:12:45 AM 40.2150 19.0140 311° West 438 504 36,000  Level FlightAware ADS-B
Sun 05:13:22 AM 40.2620 18.9440 311° West 437 503 36,000  Level FlightAware ADS-B
Sun 05:13:54 AM 40.3020 18.8830 311° West 437 503 36,000  Level FlightAware ADS-B
Sun 05:14:46 AM 40.3740 18.7740 311° West 438 504 36,000  Level FlightAware ADS-B
Sun 05:15:27 AM 40.4280 18.6920 311° West 439 505 36,000  Level FlightAware ADS-B
Sun 05:16:00 AM 40.4730 18.6240 311° West 440 506 36,000  Level FlightAware ADS-B
Sun 05:16:44 AM 40.5310 18.5350 311° West 441 507 36,000  Level FlightAware ADS-B
Sun 05:17:20 AM 40.5790 18.4630 311° West 441 507 36,000  Level FlightAware ADS-B
Sun 05:18:00 AM 40.6320 18.3810 310° West 441 507 36,000  Level FlightAware ADS-B
Sun 05:18:43 AM 40.6880 18.2950 311° West 441 507 36,000  Level FlightAware ADS-B
Sun 05:19:26 AM 40.7450 18.2070 311° West 441 507 36,000  Level FlightAware ADS-B
Sun 05:20:07 AM 40.7990 18.1250 311° West 441 507 36,000  Level FlightAware ADS-B
Sun 05:20:44 AM 40.8510 18.0440 310° West 441 507 36,000  Level FlightAware ADS-B
Sun 05:21:24 AM 40.9040 17.9620 311° West 439 505 36,000  Level FlightAware ADS-B
Sun 05:21:58 AM 40.9480 17.8930 310° West 438 504 36,000  Level FlightAware ADS-B
Sun 05:22:26 AM 40.9840 17.8360 310° West 437 503 36,000  Level FlightAware ADS-B
Sun 05:23:06 AM 41.0370 17.7550 311° West 436 502 36,000  Level FlightAware ADS-B
Sun 05:23:58 AM 41.1040 17.6490 310° West 433 498 36,000  Level FlightAware ADS-B
Sun 05:24:44 AM 41.1640 17.5540 310° West 433 498 36,000  Level FlightAware ADS-B
Sun 05:25:24 AM 41.2160 17.4730 310° West 432 497 36,000  Level FlightAware ADS-B
Sun 05:26:00 AM 41.2610 17.4010 310° West 432 497 36,000  Level FlightAware ADS-B
Sun 05:26:32 AM 41.3020 17.3360 310° West 431 496 36,000  Level FlightAware ADS-B
Sun 05:27:08 AM 41.3480 17.2630 310° West 432 497 36,000  Level FlightAware ADS-B
Sun 05:27:40 AM 41.3890 17.1980 310° West 433 498 36,000  Level FlightAware ADS-B
Sun 05:28:44 AM 41.4710 17.0670 310° West 431 496 36,000  Level FlightAware ADS-B
Sun 05:29:24 AM 41.5220 16.9850 310° West 427 491 36,000  Level FlightAware ADS-B
Sun 05:30:01 AM 41.5670 16.9120 310° West 426 490 36,000  Level FlightAware ADS-B
Sun 05:30:57 AM 41.6390 16.7970 310° West 424 488 36,000 -67 Level FlightAware ADS-B
Sun 05:31:31 AM 41.6790 16.7310 309° West 424 488 35,900  Descending FlightAware ADS-B
Sun 05:32:05 AM 41.7230 16.6610 310° West 424 488 36,000 97 Climbing FlightAware ADS-B
Sun 05:32:33 AM 41.7580 16.6040 309° West 424 488 36,000  Level FlightAware ADS-B
Sun 05:33:17 AM 41.8130 16.5140 309° West 422 486 36,000  Level FlightAware ADS-B
Sun 05:33:53 AM 41.8570 16.4430 310° West 422 486 36,000  Level FlightAware ADS-B
Sun 05:34:33 AM 41.9070 16.3610 309° West 421 484 36,000  Level FlightAware ADS-B
Sun 05:35:13 AM 41.9550 16.2820 309° West 420 483 36,000  Level FlightAware ADS-B
Sun 05:35:53 AM 42.0040 16.2010 309° West 420 483 36,000  Level FlightAware ADS-B
Sun 05:36:34 AM 42.0550 16.1170 309° West 420 483 36,000  Level FlightAware ADS-B
Sun 05:37:06 AM 42.0940 16.0530 309° West 420 483 36,000  Level FlightAware ADS-B
Sun 05:37:46 AM 42.1430 15.9710 309° West 420 483 36,000  Level FlightAware ADS-B
Sun 05:38:34 AM 42.2010 15.8740 309° West 419 482 36,000  Level FlightAware ADS-B
Sun 05:39:19 AM 42.2550 15.7840 309° West 419 482 36,000  Level FlightAware ADS-B
Sun 05:39:59 AM 42.3040 15.7020 309° West 419 482 36,000  Level FlightAware ADS-B
Sun 05:40:34 AM 42.3470 15.6300 309° West 419 482 36,000  Level FlightAware ADS-B
Sun 05:41:10 AM 42.3910 15.5570 309° West 419 482 36,000  Level FlightAware ADS-B
Sun 05:41:44 AM 42.4320 15.4870 308° West 417 480 36,000  Level FlightAware ADS-B
Sun 05:42:24 AM 42.4800 15.4060 309° West 415 478 36,000  Level FlightAware ADS-B
Sun 05:43:08 AM 42.5320 15.3180 309° West 413 475 36,000  Level FlightAware ADS-B
Sun 05:43:52 AM 42.5830 15.2310 309° West 412 474 36,000 -65 Level FlightAware ADS-B
Sun 05:44:40 AM 42.6410 15.1330 309° West 414 476 35,900 -71 Descending FlightAware ADS-B
Sun 05:45:17 AM 42.6830 15.0610 308° West 417 480 35,900 62 Level FlightAware ADS-B
Sun 05:46:17 AM 42.7580 14.9330 309° West 417 480 36,000 60 Climbing FlightAware ADS-B
Sun 05:46:57 AM 42.8030 14.8540 308° West 416 479 36,000  Level FlightAware ADS-B
Sun 05:47:33 AM 42.8490 14.7760 309° West 413 475 36,000  Level FlightAware ADS-B
Sun 05:48:09 AM 42.8900 14.7050 308° West 408 470 36,000  Level FlightAware ADS-B
Sun 05:49:13 AM 42.9500 14.5700 301° West 393 452 36,000  Level FlightAware ADS-B
Sun 05:50:23 AM 43.0050 14.4120 295° West 390 449 36,000  Level FlightAware ADS-B
Sun 05:50:55 AM 43.0280 14.3440 295° West 388 447 36,000  Level FlightAware ADS-B
Sun 05:51:38 AM 43.0620 14.2430 295° West 384 442 36,000  Level FlightAware ADS-B
Sun 05:52:30 AM 43.1010 14.1300 295° West 383 441 36,000  Level FlightAware ADS-B
Sun 05:53:11 AM 43.1310 14.0400 295° West 381 438 36,000 -83 Level FlightAware ADS-B
Sun 05:53:42 AM 43.1530 13.9720 294° West 381 438 35,900 -95 Descending FlightAware ADS-B
Sun 05:54:14 AM 43.1770 13.9030 296° West 383 441 35,900  Level FlightAware ADS-B
Sun 05:54:43 AM 43.1980 13.8390 294° West 385 443 35,900 85 Level FlightAware ADS-B
Sun 05:55:25 AM 43.2300 13.7450 295° West 390 449 36,000 80 Climbing FlightAware ADS-B
Sun 05:55:58 AM 43.2550 13.6700 295° West 392 451 36,000  Level FlightAware ADS-B
Sun 05:56:35 AM 43.2830 13.5850 294° West 394 453 36,000  Level FlightAware ADS-B
Sun 05:57:11 AM 43.3100 13.5040 295° West 390 449 36,000  Level FlightAware ADS-B
Sun 05:57:50 AM 43.3390 13.4170 295° West 384 442 36,000  Level FlightAware ADS-B
Sun 05:58:34 AM 43.3710 13.3200 294° West 388 447 36,000  Level FlightAware ADS-B
Sun 05:59:36 AM 43.4170 13.1790 294° West 395 455 36,000  Level FlightAware ADS-B
Sun 06:00:17 AM 43.4480 13.0840 294° West 398 458 36,000  Level FlightAware ADS-B
Sun 06:00:51 AM 43.4730 13.0060 294° West 398 458 36,000  Level FlightAware ADS-B
Sun 06:01:40 AM 43.5100 12.8920 294° West 397 457 36,000  Level FlightAware ADS-B
Sun 06:02:28 AM 43.5450 12.7820 294° West 395 455 36,000  Level FlightAware ADS-B
Sun 06:03:05 AM 43.5720 12.6990 294° West 393 452 36,000 -82 Level FlightAware ADS-B
Sun 06:03:41 AM 43.5990 12.6150 294° West 394 453 35,900  Descending FlightAware ADS-B
Sun 06:04:18 AM 43.6260 12.5300 294° West 394 453 36,000 86 Climbing FlightAware ADS-B
Sun 06:04:51 AM 43.6500 12.4540 294° West 396 456 36,000  Level FlightAware ADS-B
Sun 06:05:39 AM 43.6850 12.3440 294° West 395 455 36,000 -217 Level FlightAware ADS-B
Sun 06:06:14 AM 43.7100 12.2620 293° West 395 455 35,700 -716 Descending FlightAware ADS-B
Sun 06:06:46 AM 43.7340 12.1890 294° West 389 448 35,200 -935 Descending FlightAware ADS-B
Sun 06:07:31 AM 43.7660 12.0880 294° West 391 450 34,500 -968 Descending FlightAware ADS-B
Sun 06:08:19 AM 43.8010 11.9740 293° West 401 461 33,700 -981 Descending FlightAware ADS-B
Sun 06:09:15 AM 43.8410 11.8450 293° West 408 470 32,800 -968 Descending FlightAware ADS-B
Sun 06:09:52 AM 43.8700 11.7540 294° West 410 472 32,200 -985 Descending FlightAware ADS-B
Sun 06:10:22 AM 43.8920 11.6800 292° West 414 476 31,700 -1,014 Descending FlightAware ADS-B
Sun 06:11:03 AM 43.9230 11.5800 293° West 408 470 31,000 -989 Descending FlightAware ADS-B
Sun 06:11:53 AM 43.9470 11.4560 285° West 400 460 30,200 -732 Descending FlightAware ADS-B
Sun 06:12:25 AM 43.9610 11.3760 284° West 406 467 30,000 -197 Descending FlightAware ADS-B
Sun 06:12:54 AM 43.9740 11.3050 284° West 408 470 30,000  Level FlightAware ADS-B
Sun 06:13:30 AM 43.9910 11.2090 284° West 414 476 30,000  Level FlightAware ADS-B
Sun 06:14:06 AM 44.0070 11.1180 284° West 416 479 30,000  Level FlightAware ADS-B
Sun 06:14:54 AM 44.0350 10.9960 288° West 413 475 30,000  Level FlightAware ADS-B
Sun 06:15:31 AM 44.0670 10.9080 297° West 414 476 30,000  Level FlightAware ADS-B
Sun 06:16:09 AM 44.1030 10.8200 300° West 414 476 30,000  Level FlightAware ADS-B
Sun 06:16:48 AM 44.1410 10.7280 300° West 415 478 30,000  Level FlightAware ADS-B
Sun 06:17:32 AM 44.1810 10.6280 299° West 413 475 30,000  Level FlightAware ADS-B
Sun 06:18:19 AM 44.2260 10.5190 300° West 415 478 30,000  Level FlightAware ADS-B
Sun 06:19:03 AM 44.2670 10.4180 300° West 409 471 30,000 -69 Level FlightAware ADS-B
Sun 06:19:46 AM 44.3050 10.3220 299° West 406 467 29,900 -545 Descending FlightAware ADS-B
Sun 06:20:31 AM 44.3480 10.2160 300° West 399 459 29,200 -923 Descending FlightAware ADS-B
Sun 06:21:04 AM 44.3770 10.1450 300° West 387 445 28,700 -1,015 Descending FlightAware ADS-B
Sun 06:21:36 AM 44.4030 10.0790 299° West 382 440 28,100 -1,069 Descending FlightAware ADS-B
Sun 06:22:45 AM 44.4640 9.9270 299° West 375 432 26,900 -991 Descending FlightAware ADS-B
Sun 06:23:25 AM 44.4970 9.8430 299° West 375 432 26,300 -940 Descending FlightAware ADS-B
Sun 06:24:08 AM 44.5330 9.7510 299° West 371 427 25,600 -1,037 Descending FlightAware ADS-B
Sun 06:24:46 AM 44.5690 9.6730 303° West 379 436 24,900 -1,040 Descending FlightAware ADS-B
Sun 06:25:23 AM 44.6150 9.6090 315° West 384 442 24,300 -1,091 Descending FlightAware ADS-B
Sun 06:26:03 AM 44.6640 9.5400 315° West 380 437 23,500 -2,148 Descending FlightAware ADS-B
Sun 06:26:44 AM 44.7120 9.4710 314° West 379 436 21,400 -3,316 Descending FlightAware ADS-B
Sun 06:27:19 AM 44.7580 9.4060 315° West 379 436 19,300 -2,962 Descending FlightAware ADS-B
Sun 06:28:03 AM 44.8090 9.3330 315° West 362 417 17,500 -2,538 Descending FlightAware ADS-B
Sun 06:28:37 AM 44.8490 9.2760 315° West 350 403 16,000 -2,892 Descending FlightAware ADS-B
Sun 06:29:26 AM 44.9050 9.1960 315° West 345 397 13,500 -2,795 Descending FlightAware ADS-B
Sun 06:30:05 AM 44.9490 9.1320 314° West 330 380 11,900 -2,370 Descending FlightAware ADS-B
Sun 06:30:47 AM 44.9930 9.0690 315° West 323 372 10,300 -1,472 Descending FlightAware ADS-B
Sun 06:31:51 AM 45.0530 8.9830 315° West 260 299 9,300 -923 Descending FlightAware ADS-B
Sun 06:32:31 AM 45.0850 8.9360 314° West 255 293 8,700 -1,000 Descending FlightAware ADS-B
Sun 06:33:09 AM 45.1170 8.8900 315° West 246 283 8,000 -1,026 Descending FlightAware ADS-B
Sun 06:33:47 AM 45.1490 8.8570 324° Northwest 248 285 7,400 -1,135 Descending FlightAware ADS-B
Sun 06:34:23 AM 45.1910 8.8430 347° North 249 287 6,600 -1,313 Descending FlightAware ADS-B
Sun 06:34:51 AM 45.2230 8.8350 350° North 250 288 6,000 -1,100 Descending FlightAware ADS-B
Sun 06:35:23 AM 45.2580 8.8250 349° North 250 288 5,500 -971 Descending FlightAware ADS-B
Sun 06:35:59 AM 45.3000 8.8140 350° North 243 280 4,900 -913 Descending FlightAware ADS-B
Sun 06:36:55 AM 45.3640 8.7960 349° North 259 298 4,100 -539 Descending FlightAware ADS-B
Sun 06:37:28 AM 45.4000 8.7860 349° North 229 264 4,100 86 Level FlightAware ADS-B
Sun 06:38:05 AM 45.4360 8.7760 349° North 204 235 4,200 -176 Climbing FlightAware ADS-B
Sun 06:38:36 AM 45.4640 8.7690 350° North 191 220 3,900 -857 Descending FlightAware ADS-B
Sun 06:39:08 AM 45.4910 8.7610 348° North 190 219 3,300 -1,082 Descending FlightAware ADS-B
Sun 06:39:37 AM 45.5140 8.7550 350° North 187 215 2,800 -900 Descending FlightAware ADS-B
Sun 06:40:28 AM 45.5530 8.7440 349° North 141 162 2,100 -813 Descending FlightAware ADS-B
Sun 06:41:13 AM 45.5820 8.7360 349° North 134 154 1,500 -759 Descending FlightAware ADS-B
Sun 06:41:55 AM 45.6070 8.7290 349° North 132 152 1,000 -435 Descending FlightAware ADS-B
Sun 06:42:22 AM 45.6210 8.7250 349° North 132 152 1,000  Level FlightAware ADS-B
Sun 06:45:00 AM 45.6306 8.7281 13° North  Level Estimated
Sun 06:46:00 AM 45.6306 8.7281 170° South  Level Estimated
Sun 06:47:00 AM 45.6306 8.7281 170° South  Level Estimated
Sun 06:48:00 AM 45.6306 8.7281 170° South  Level Estimated
Sun 06:49:00 AM 45.6306 8.7281 170° South  Level Estimated
Sun 06:50:00 AM 45.6306 8.7281 170° South  Level Estimated
Sun 06:51:00 AM 45.6306 8.7281 170° South  Level Estimated
Sun 06:52:00 AM 45.6306 8.7281 170° South  Level Estimated
Sun 06:53:00 AM 45.6306 8.7281 170° South  Level Estimated
Sun 06:54:00 AM 45.6306 8.7281 170° South  Level Estimated
Sun 06:55:00 AM 45.6306 8.7281 170° South  Level Estimated
Sun 06:56:00 AM 45.6306 8.7281 170° South  Level Estimated
Sun 06:57:00 AM 45.6306 8.7281 170° South  Level Estimated
Sun 06:58:00 AM 45.6306 8.7281 170° South  Level Estimated
Sun 06:59:00 AM 45.6306 8.7281 170° South  Level Estimated
Sun 07:00:00 AM 45.6306 8.7281 170° South  Level Estimated
Sun 07:01:00 AM 45.6306 8.7281 170° South  Level Estimated
Sun 07:02:00 AM 45.6306 8.7281 170° South  Level Estimated
Sun 07:03:00 AM 45.6306 8.7281 170° South  Level Estimated

Login

Don't have an account? Register now (free) for customized features, flight alerts, and more!